sensor_id;sensor_type;location;lat;lon;timestamp;P1;durP1;ratioP1;P2;durP2;ratioP2
71869;SDS011;59739;47.696;11.746;2024-03-29T00:01:25;0.98;;;0.50;;
71869;SDS011;59739;47.696;11.746;2024-03-29T00:03:51;0.40;;;0.30;;
71869;SDS011;59739;47.696;11.746;2024-03-29T00:06:20;0.30;;;0.30;;
71869;SDS011;59739;47.696;11.746;2024-03-29T00:08:46;0.40;;;0.40;;
71869;SDS011;59739;47.696;11.746;2024-03-29T00:11:12;0.85;;;0.43;;
71869;SDS011;59739;47.696;11.746;2024-03-29T00:13:38;0.30;;;0.30;;
71869;SDS011;59739;47.696;11.746;2024-03-29T00:16:04;0.35;;;0.35;;
71869;SDS011;59739;47.696;11.746;2024-03-29T00:18:31;0.65;;;0.45;;
71869;SDS011;59739;47.696;11.746;2024-03-29T00:20:57;0.40;;;0.40;;
71869;SDS011;59739;47.696;11.746;2024-03-29T00:23:22;0.50;;;0.40;;
71869;SDS011;59739;47.696;11.746;2024-03-29T00:25:48;0.63;;;0.30;;
71869;SDS011;59739;47.696;11.746;2024-03-29T00:28:14;0.40;;;0.40;;
71869;SDS011;59739;47.696;11.746;2024-03-29T00:30:40;0.98;;;0.30;;
71869;SDS011;59739;47.696;11.746;2024-03-29T00:33:06;0.30;;;0.30;;
71869;SDS011;59739;47.696;11.746;2024-03-29T00:35:32;0.38;;;0.38;;
71869;SDS011;59739;47.696;11.746;2024-03-29T00:37:58;0.55;;;0.50;;
71869;SDS011;59739;47.696;11.746;2024-03-29T00:40:24;0.30;;;0.30;;
71869;SDS011;59739;47.696;11.746;2024-03-29T00:42:50;0.50;;;0.40;;
71869;SDS011;59739;47.696;11.746;2024-03-29T00:45:16;0.52;;;0.30;;
71869;SDS011;59739;47.696;11.746;2024-03-29T00:47:42;0.30;;;0.30;;
71869;SDS011;59739;47.696;11.746;2024-03-29T00:50:08;0.20;;;0.20;;
71869;SDS011;59739;47.696;11.746;2024-03-29T00:52:35;0.38;;;0.30;;
71869;SDS011;59739;47.696;11.746;2024-03-29T00:55:01;0.30;;;0.30;;
71869;SDS011;59739;47.696;11.746;2024-03-29T00:57:28;0.57;;;0.40;;
71869;SDS011;59739;47.696;11.746;2024-03-29T00:59:54;0.50;;;0.40;;
71869;SDS011;59739;47.696;11.746;2024-03-29T01:02:21;0.40;;;0.32;;
71869;SDS011;59739;47.696;11.746;2024-03-29T01:04:48;0.45;;;0.20;;
71869;SDS011;59739;47.696;11.746;2024-03-29T01:07:15;0.35;;;0.20;;
71869;SDS011;59739;47.696;11.746;2024-03-29T01:09:42;0.40;;;0.30;;
71869;SDS011;59739;47.696;11.746;2024-03-29T01:12:09;0.30;;;0.30;;
71869;SDS011;59739;47.696;11.746;2024-03-29T01:14:35;0.22;;;0.22;;
71869;SDS011;59739;47.696;11.746;2024-03-29T01:17:02;0.93;;;0.40;;
71869;SDS011;59739;47.696;11.746;2024-03-29T01:19:28;0.28;;;0.28;;
71869;SDS011;59739;47.696;11.746;2024-03-29T01:21:54;0.30;;;0.30;;
71869;SDS011;59739;47.696;11.746;2024-03-29T01:24:20;0.30;;;0.30;;
71869;SDS011;59739;47.696;11.746;2024-03-29T01:26:46;0.32;;;0.32;;
71869;SDS011;59739;47.696;11.746;2024-03-29T01:29:12;0.30;;;0.30;;
71869;SDS011;59739;47.696;11.746;2024-03-29T01:31:38;0.40;;;0.40;;
71869;SDS011;59739;47.696;11.746;2024-03-29T01:34:04;0.30;;;0.30;;
71869;SDS011;59739;47.696;11.746;2024-03-29T01:36:30;0.40;;;0.40;;
71869;SDS011;59739;47.696;11.746;2024-03-29T01:38:56;0.30;;;0.30;;
71869;SDS011;59739;47.696;11.746;2024-03-29T01:41:23;0.30;;;0.30;;
71869;SDS011;59739;47.696;11.746;2024-03-29T01:43:51;0.30;;;0.20;;
71869;SDS011;59739;47.696;11.746;2024-03-29T01:46:22;0.30;;;0.30;;
71869;SDS011;59739;47.696;11.746;2024-03-29T01:48:50;0.30;;;0.30;;
71869;SDS011;59739;47.696;11.746;2024-03-29T01:51:16;0.43;;;0.30;;
71869;SDS011;59739;47.696;11.746;2024-03-29T01:53:43;0.30;;;0.28;;
71869;SDS011;59739;47.696;11.746;2024-03-29T01:56:09;0.30;;;0.30;;
71869;SDS011;59739;47.696;11.746;2024-03-29T01:58:36;0.65;;;0.40;;
71869;SDS011;59739;47.696;11.746;2024-03-29T02:01:04;0.30;;;0.30;;
71869;SDS011;59739;47.696;11.746;2024-03-29T02:03:32;0.25;;;0.25;;
71869;SDS011;59739;47.696;11.746;2024-03-29T02:05:58;0.38;;;0.38;;
71869;SDS011;59739;47.696;11.746;2024-03-29T02:08:26;1.88;;;0.20;;
71869;SDS011;59739;47.696;11.746;2024-03-29T02:10:53;0.20;;;0.20;;
71869;SDS011;59739;47.696;11.746;2024-03-29T02:13:19;0.30;;;0.30;;
71869;SDS011;59739;47.696;11.746;2024-03-29T02:15:46;0.40;;;0.30;;
71869;SDS011;59739;47.696;11.746;2024-03-29T02:18:12;0.38;;;0.38;;
71869;SDS011;59739;47.696;11.746;2024-03-29T02:20:38;0.40;;;0.40;;
71869;SDS011;59739;47.696;11.746;2024-03-29T02:23:06;0.20;;;0.20;;
71869;SDS011;59739;47.696;11.746;2024-03-29T02:25:36;0.55;;;0.30;;
71869;SDS011;59739;47.696;11.746;2024-03-29T02:28:03;1.15;;;0.30;;
71869;SDS011;59739;47.696;11.746;2024-03-29T02:30:30;0.30;;;0.30;;
71869;SDS011;59739;47.696;11.746;2024-03-29T02:32:59;0.25;;;0.25;;
71869;SDS011;59739;47.696;11.746;2024-03-29T02:35:26;0.55;;;0.30;;
71869;SDS011;59739;47.696;11.746;2024-03-29T02:37:52;0.20;;;0.20;;
71869;SDS011;59739;47.696;11.746;2024-03-29T02:40:19;0.50;;;0.30;;
71869;SDS011;59739;47.696;11.746;2024-03-29T02:42:45;0.38;;;0.30;;
71869;SDS011;59739;47.696;11.746;2024-03-29T02:45:14;0.38;;;0.30;;
71869;SDS011;59739;47.696;11.746;2024-03-29T02:47:40;0.90;;;0.30;;
71869;SDS011;59739;47.696;11.746;2024-03-29T02:50:08;0.80;;;0.30;;
71869;SDS011;59739;47.696;11.746;2024-03-29T02:52:38;0.40;;;0.40;;
71869;SDS011;59739;47.696;11.746;2024-03-29T02:55:04;0.30;;;0.30;;
71869;SDS011;59739;47.696;11.746;2024-03-29T02:57:31;0.47;;;0.47;;
71869;SDS011;59739;47.696;11.746;2024-03-29T02:59:57;0.40;;;0.30;;
71869;SDS011;59739;47.696;11.746;2024-03-29T03:02:23;0.30;;;0.30;;
71869;SDS011;59739;47.696;11.746;2024-03-29T03:04:49;0.30;;;0.30;;
71869;SDS011;59739;47.696;11.746;2024-03-29T03:07:15;0.40;;;0.40;;
71869;SDS011;59739;47.696;11.746;2024-03-29T03:09:59;0.63;;;0.40;;
71869;SDS011;59739;47.696;11.746;2024-03-29T03:12:44;0.30;;;0.30;;
71869;SDS011;59739;47.696;11.746;2024-03-29T03:15:10;0.35;;;0.30;;
71869;SDS011;59739;47.696;11.746;2024-03-29T03:17:36;0.57;;;0.45;;
71869;SDS011;59739;47.696;11.746;2024-03-29T03:20:02;0.50;;;0.30;;
71869;SDS011;59739;47.696;11.746;2024-03-29T03:22:32;0.50;;;0.40;;
71869;SDS011;59739;47.696;11.746;2024-03-29T03:24:58;0.20;;;0.20;;
71869;SDS011;59739;47.696;11.746;2024-03-29T03:27:24;0.57;;;0.30;;
71869;SDS011;59739;47.696;11.746;2024-03-29T03:29:50;0.28;;;0.28;;
71869;SDS011;59739;47.696;11.746;2024-03-29T03:32:16;0.30;;;0.30;;
71869;SDS011;59739;47.696;11.746;2024-03-29T03:34:42;0.50;;;0.40;;
71869;SDS011;59739;47.696;11.746;2024-03-29T03:37:08;0.40;;;0.40;;
71869;SDS011;59739;47.696;11.746;2024-03-29T03:39:34;0.30;;;0.30;;
71869;SDS011;59739;47.696;11.746;2024-03-29T03:42:00;0.32;;;0.32;;
71869;SDS011;59739;47.696;11.746;2024-03-29T03:44:25;0.80;;;0.50;;
71869;SDS011;59739;47.696;11.746;2024-03-29T03:46:53;0.35;;;0.30;;
71869;SDS011;59739;47.696;11.746;2024-03-29T03:49:20;0.30;;;0.30;;
71869;SDS011;59739;47.696;11.746;2024-03-29T03:51:46;0.38;;;0.30;;
71869;SDS011;59739;47.696;11.746;2024-03-29T03:54:12;0.40;;;0.40;;
71869;SDS011;59739;47.696;11.746;2024-03-29T03:56:38;0.30;;;0.30;;
71869;SDS011;59739;47.696;11.746;2024-03-29T03:59:04;0.60;;;0.60;;
71869;SDS011;59739;47.696;11.746;2024-03-29T04:01:30;0.30;;;0.30;;
71869;SDS011;59739;47.696;11.746;2024-03-29T04:03:56;0.47;;;0.47;;
71869;SDS011;59739;47.696;11.746;2024-03-29T04:06:22;0.40;;;0.40;;
71869;SDS011;59739;47.696;11.746;2024-03-29T04:08:47;0.55;;;0.55;;
71869;SDS011;59739;47.696;11.746;2024-03-29T04:11:13;2.58;;;0.60;;
71869;SDS011;59739;47.696;11.746;2024-03-29T04:13:42;0.70;;;0.63;;
71869;SDS011;59739;47.696;11.746;2024-03-29T04:16:10;0.52;;;0.52;;
71869;SDS011;59739;47.696;11.746;2024-03-29T04:18:36;1.10;;;0.60;;
71869;SDS011;59739;47.696;11.746;2024-03-29T04:21:03;0.98;;;0.60;;
71869;SDS011;59739;47.696;11.746;2024-03-29T04:23:30;0.68;;;0.50;;
71869;SDS011;59739;47.696;11.746;2024-03-29T04:25:57;1.13;;;0.60;;
71869;SDS011;59739;47.696;11.746;2024-03-29T04:28:25;0.40;;;0.40;;
71869;SDS011;59739;47.696;11.746;2024-03-29T04:30:55;0.57;;;0.50;;
71869;SDS011;59739;47.696;11.746;2024-03-29T04:33:25;0.50;;;0.50;;
71869;SDS011;59739;47.696;11.746;2024-03-29T04:38:31;0.45;;;0.45;;
71869;SDS011;59739;47.696;11.746;2024-03-29T04:40:58;0.82;;;0.60;;
71869;SDS011;59739;47.696;11.746;2024-03-29T04:43:25;0.50;;;0.50;;
71869;SDS011;59739;47.696;11.746;2024-03-29T04:46:02;0.85;;;0.70;;
71869;SDS011;59739;47.696;11.746;2024-03-29T04:48:34;0.98;;;0.73;;
71869;SDS011;59739;47.696;11.746;2024-03-29T04:51:04;0.70;;;0.70;;
71869;SDS011;59739;47.696;11.746;2024-03-29T04:53:30;0.80;;;0.60;;
71869;SDS011;59739;47.696;11.746;2024-03-29T04:55:56;0.60;;;0.50;;
71869;SDS011;59739;47.696;11.746;2024-03-29T04:58:26;1.45;;;1.00;;
71869;SDS011;59739;47.696;11.746;2024-03-29T05:00:53;0.60;;;0.60;;
71869;SDS011;59739;47.696;11.746;2024-03-29T05:03:20;0.90;;;0.60;;
71869;SDS011;59739;47.696;11.746;2024-03-29T05:05:50;0.50;;;0.50;;
71869;SDS011;59739;47.696;11.746;2024-03-29T05:08:17;0.60;;;0.60;;
71869;SDS011;59739;47.696;11.746;2024-03-29T05:10:44;0.60;;;0.60;;
71869;SDS011;59739;47.696;11.746;2024-03-29T05:13:11;0.98;;;0.63;;
71869;SDS011;59739;47.696;11.746;2024-03-29T05:15:37;0.70;;;0.70;;
71869;SDS011;59739;47.696;11.746;2024-03-29T05:18:06;0.70;;;0.70;;
71869;SDS011;59739;47.696;11.746;2024-03-29T05:20:33;0.60;;;0.57;;
71869;SDS011;59739;47.696;11.746;2024-03-29T05:22:59;0.70;;;0.60;;
71869;SDS011;59739;47.696;11.746;2024-03-29T05:25:25;0.80;;;0.80;;
71869;SDS011;59739;47.696;11.746;2024-03-29T05:27:53;1.60;;;0.70;;
71869;SDS011;59739;47.696;11.746;2024-03-29T05:30:20;1.13;;;0.80;;
71869;SDS011;59739;47.696;11.746;2024-03-29T05:32:46;0.60;;;0.60;;
71869;SDS011;59739;47.696;11.746;2024-03-29T05:35:12;0.88;;;0.73;;
71869;SDS011;59739;47.696;11.746;2024-03-29T05:37:39;0.60;;;0.60;;
71869;SDS011;59739;47.696;11.746;2024-03-29T05:40:05;0.95;;;0.80;;
71869;SDS011;59739;47.696;11.746;2024-03-29T05:42:32;0.75;;;0.60;;
71869;SDS011;59739;47.696;11.746;2024-03-29T05:45:00;0.70;;;0.70;;
71869;SDS011;59739;47.696;11.746;2024-03-29T05:47:28;1.00;;;0.70;;
71869;SDS011;59739;47.696;11.746;2024-03-29T05:49:54;0.90;;;0.60;;
71869;SDS011;59739;47.696;11.746;2024-03-29T05:52:20;0.70;;;0.70;;
71869;SDS011;59739;47.696;11.746;2024-03-29T05:54:48;1.10;;;1.00;;
71869;SDS011;59739;47.696;11.746;2024-03-29T05:57:15;1.30;;;0.82;;
71869;SDS011;59739;47.696;11.746;2024-03-29T05:59:41;1.10;;;0.80;;
71869;SDS011;59739;47.696;11.746;2024-03-29T06:02:07;0.70;;;0.63;;
71869;SDS011;59739;47.696;11.746;2024-03-29T06:04:33;1.00;;;0.57;;
71869;SDS011;59739;47.696;11.746;2024-03-29T06:07:04;0.80;;;0.60;;
71869;SDS011;59739;47.696;11.746;2024-03-29T06:09:30;1.27;;;0.63;;
71869;SDS011;59739;47.696;11.746;2024-03-29T06:11:58;0.50;;;0.50;;
71869;SDS011;59739;47.696;11.746;2024-03-29T06:14:25;1.45;;;0.70;;
71869;SDS011;59739;47.696;11.746;2024-03-29T06:17:10;1.67;;;0.75;;
71869;SDS011;59739;47.696;11.746;2024-03-29T06:19:49;1.85;;;0.70;;
71869;SDS011;59739;47.696;11.746;2024-03-29T06:22:17;1.40;;;0.68;;
71869;SDS011;59739;47.696;11.746;2024-03-29T06:24:43;0.80;;;0.50;;
71869;SDS011;59739;47.696;11.746;2024-03-29T06:27:10;0.70;;;0.70;;
71869;SDS011;59739;47.696;11.746;2024-03-29T06:29:36;0.50;;;0.50;;
71869;SDS011;59739;47.696;11.746;2024-03-29T06:32:02;0.80;;;0.60;;
71869;SDS011;59739;47.696;11.746;2024-03-29T06:34:30;0.93;;;0.70;;
71869;SDS011;59739;47.696;11.746;2024-03-29T06:36:56;0.70;;;0.70;;
71869;SDS011;59739;47.696;11.746;2024-03-29T06:39:23;1.00;;;0.60;;
71869;SDS011;59739;47.696;11.746;2024-03-29T06:41:51;0.82;;;0.57;;
71869;SDS011;59739;47.696;11.746;2024-03-29T06:44:17;0.70;;;0.70;;
71869;SDS011;59739;47.696;11.746;2024-03-29T06:46:43;0.63;;;0.60;;
71869;SDS011;59739;47.696;11.746;2024-03-29T06:49:11;0.60;;;0.60;;
71869;SDS011;59739;47.696;11.746;2024-03-29T06:51:38;0.50;;;0.50;;
71869;SDS011;59739;47.696;11.746;2024-03-29T06:54:08;0.88;;;0.55;;
71869;SDS011;59739;47.696;11.746;2024-03-29T06:56:34;0.95;;;0.68;;
71869;SDS011;59739;47.696;11.746;2024-03-29T06:59:00;0.70;;;0.50;;
71869;SDS011;59739;47.696;11.746;2024-03-29T07:01:27;0.60;;;0.60;;
71869;SDS011;59739;47.696;11.746;2024-03-29T07:03:53;1.17;;;0.50;;
71869;SDS011;59739;47.696;11.746;2024-03-29T07:06:19;0.40;;;0.40;;
71869;SDS011;59739;47.696;11.746;2024-03-29T07:08:46;2.58;;;0.47;;
71869;SDS011;59739;47.696;11.746;2024-03-29T07:11:12;1.02;;;0.88;;
71869;SDS011;59739;47.696;11.746;2024-03-29T07:13:39;1.50;;;0.60;;
71869;SDS011;59739;47.696;11.746;2024-03-29T07:16:05;2.17;;;0.75;;
71869;SDS011;59739;47.696;11.746;2024-03-29T07:18:34;0.68;;;0.50;;
71869;SDS011;59739;47.696;11.746;2024-03-29T07:21:00;1.17;;;0.35;;
71869;SDS011;59739;47.696;11.746;2024-03-29T07:23:26;0.47;;;0.40;;
71869;SDS011;59739;47.696;11.746;2024-03-29T07:26:00;0.90;;;0.50;;
71869;SDS011;59739;47.696;11.746;2024-03-29T07:28:29;0.40;;;0.30;;
71869;SDS011;59739;47.696;11.746;2024-03-29T07:30:55;1.38;;;0.47;;
71869;SDS011;59739;47.696;11.746;2024-03-29T07:33:23;1.15;;;0.30;;
71869;SDS011;59739;47.696;11.746;2024-03-29T07:35:53;1.13;;;0.38;;
71869;SDS011;59739;47.696;11.746;2024-03-29T07:38:23;0.40;;;0.40;;
71869;SDS011;59739;47.696;11.746;2024-03-29T07:40:51;0.50;;;0.40;;
71869;SDS011;59739;47.696;11.746;2024-03-29T07:43:20;0.65;;;0.40;;
71869;SDS011;59739;47.696;11.746;2024-03-29T07:45:47;1.60;;;0.43;;
71869;SDS011;59739;47.696;11.746;2024-03-29T07:48:15;2.28;;;0.40;;
71869;SDS011;59739;47.696;11.746;2024-03-29T07:50:43;0.93;;;0.50;;
71869;SDS011;59739;47.696;11.746;2024-03-29T07:53:11;1.17;;;0.40;;
71869;SDS011;59739;47.696;11.746;2024-03-29T07:55:38;0.50;;;0.30;;
71869;SDS011;59739;47.696;11.746;2024-03-29T07:58:06;0.80;;;0.50;;
71869;SDS011;59739;47.696;11.746;2024-03-29T08:00:34;0.52;;;0.30;;
71869;SDS011;59739;47.696;11.746;2024-03-29T08:03:00;0.43;;;0.43;;
71869;SDS011;59739;47.696;11.746;2024-03-29T08:05:27;0.80;;;0.30;;
71869;SDS011;59739;47.696;11.746;2024-03-29T08:07:54;0.40;;;0.40;;
71869;SDS011;59739;47.696;11.746;2024-03-29T08:10:20;1.10;;;0.50;;
71869;SDS011;59739;47.696;11.746;2024-03-29T08:12:46;0.80;;;0.30;;
71869;SDS011;59739;47.696;11.746;2024-03-29T08:15:13;0.55;;;0.55;;
71869;SDS011;59739;47.696;11.746;2024-03-29T08:17:39;0.70;;;0.40;;
71869;SDS011;59739;47.696;11.746;2024-03-29T08:20:05;1.63;;;0.50;;
71869;SDS011;59739;47.696;11.746;2024-03-29T08:22:32;0.90;;;0.43;;
71869;SDS011;59739;47.696;11.746;2024-03-29T08:24:58;0.60;;;0.30;;
71869;SDS011;59739;47.696;11.746;2024-03-29T08:27:26;0.90;;;0.50;;
71869;SDS011;59739;47.696;11.746;2024-03-29T08:29:53;0.70;;;0.38;;
71869;SDS011;59739;47.696;11.746;2024-03-29T08:32:19;0.75;;;0.35;;
71869;SDS011;59739;47.696;11.746;2024-03-29T08:34:46;0.25;;;0.20;;
71869;SDS011;59739;47.696;11.746;2024-03-29T08:37:13;0.40;;;0.38;;
71869;SDS011;59739;47.696;11.746;2024-03-29T08:39:39;0.93;;;0.40;;
71869;SDS011;59739;47.696;11.746;2024-03-29T08:42:05;1.98;;;0.40;;
71869;SDS011;59739;47.696;11.746;2024-03-29T08:44:32;0.85;;;0.40;;
71869;SDS011;59739;47.696;11.746;2024-03-29T08:46:59;0.52;;;0.38;;
71869;SDS011;59739;47.696;11.746;2024-03-29T08:49:28;1.42;;;0.35;;
71869;SDS011;59739;47.696;11.746;2024-03-29T08:51:58;1.10;;;0.40;;
71869;SDS011;59739;47.696;11.746;2024-03-29T08:54:27;2.42;;;0.40;;
71869;SDS011;59739;47.696;11.746;2024-03-29T08:56:53;1.85;;;0.50;;
71869;SDS011;59739;47.696;11.746;2024-03-29T08:59:19;1.02;;;0.30;;
71869;SDS011;59739;47.696;11.746;2024-03-29T09:01:45;0.70;;;0.30;;
71869;SDS011;59739;47.696;11.746;2024-03-29T09:04:14;1.77;;;0.40;;
71869;SDS011;59739;47.696;11.746;2024-03-29T09:06:41;0.77;;;0.20;;
71869;SDS011;59739;47.696;11.746;2024-03-29T09:09:08;1.73;;;0.30;;
71869;SDS011;59739;47.696;11.746;2024-03-29T09:11:35;0.38;;;0.38;;
71869;SDS011;59739;47.696;11.746;2024-03-29T09:14:01;0.60;;;0.35;;
71869;SDS011;59739;47.696;11.746;2024-03-29T09:16:32;1.23;;;0.40;;
71869;SDS011;59739;47.696;11.746;2024-03-29T09:18:58;1.05;;;0.20;;
71869;SDS011;59739;47.696;11.746;2024-03-29T09:21:25;1.33;;;0.43;;
71869;SDS011;59739;47.696;11.746;2024-03-29T09:23:51;1.02;;;0.50;;
71869;SDS011;59739;47.696;11.746;2024-03-29T09:26:24;0.52;;;0.25;;
71869;SDS011;59739;47.696;11.746;2024-03-29T09:28:50;0.63;;;0.22;;
71869;SDS011;59739;47.696;11.746;2024-03-29T09:31:16;0.93;;;0.30;;
71869;SDS011;59739;47.696;11.746;2024-03-29T09:33:45;0.68;;;0.30;;
71869;SDS011;59739;47.696;11.746;2024-03-29T09:36:21;0.47;;;0.20;;
71869;SDS011;59739;47.696;11.746;2024-03-29T09:38:50;0.80;;;0.30;;
71869;SDS011;59739;47.696;11.746;2024-03-29T09:41:20;1.05;;;0.30;;
71869;SDS011;59739;47.696;11.746;2024-03-29T09:43:52;0.73;;;0.37;;
71869;SDS011;59739;47.696;11.746;2024-03-29T09:48:46;0.77;;;0.30;;
71869;SDS011;59739;47.696;11.746;2024-03-29T09:51:13;1.10;;;0.30;;
71869;SDS011;59739;47.696;11.746;2024-03-29T09:53:44;0.52;;;0.20;;
71869;SDS011;59739;47.696;11.746;2024-03-29T09:56:12;0.20;;;0.20;;
71869;SDS011;59739;47.696;11.746;2024-03-29T09:58:38;0.60;;;0.28;;
71869;SDS011;59739;47.696;11.746;2024-03-29T10:01:05;0.68;;;0.43;;
71869;SDS011;59739;47.696;11.746;2024-03-29T10:03:35;2.05;;;0.40;;
71869;SDS011;59739;47.696;11.746;2024-03-29T10:06:07;1.73;;;0.20;;
71869;SDS011;59739;47.696;11.746;2024-03-29T10:08:33;1.40;;;0.20;;
71869;SDS011;59739;47.696;11.746;2024-03-29T10:11:00;0.32;;;0.25;;
71869;SDS011;59739;47.696;11.746;2024-03-29T10:13:27;1.23;;;0.30;;
71869;SDS011;59739;47.696;11.746;2024-03-29T10:15:53;0.85;;;0.30;;
71869;SDS011;59739;47.696;11.746;2024-03-29T10:18:21;0.98;;;0.45;;
71869;SDS011;59739;47.696;11.746;2024-03-29T10:20:58;0.60;;;0.30;;
71869;SDS011;59739;47.696;11.746;2024-03-29T10:23:29;0.68;;;0.40;;
71869;SDS011;59739;47.696;11.746;2024-03-29T10:25:56;0.68;;;0.25;;
71869;SDS011;59739;47.696;11.746;2024-03-29T10:28:23;1.23;;;0.40;;
71869;SDS011;59739;47.696;11.746;2024-03-29T10:30:54;0.38;;;0.28;;
71869;SDS011;59739;47.696;11.746;2024-03-29T10:33:20;0.55;;;0.20;;
71869;SDS011;59739;47.696;11.746;2024-03-29T10:35:47;0.98;;;0.20;;
71869;SDS011;59739;47.696;11.746;2024-03-29T10:38:13;0.68;;;0.20;;
71869;SDS011;59739;47.696;11.746;2024-03-29T10:40:40;1.65;;;0.20;;
71869;SDS011;59739;47.696;11.746;2024-03-29T10:43:10;0.32;;;0.20;;
71869;SDS011;59739;47.696;11.746;2024-03-29T10:45:47;0.47;;;0.20;;
71869;SDS011;59739;47.696;11.746;2024-03-29T10:48:16;0.38;;;0.20;;
71869;SDS011;59739;47.696;11.746;2024-03-29T10:50:43;2.13;;;0.32;;
71869;SDS011;59739;47.696;11.746;2024-03-29T10:53:13;0.40;;;0.20;;
71869;SDS011;59739;47.696;11.746;2024-03-29T10:55:41;3.92;;;0.35;;
71869;SDS011;59739;47.696;11.746;2024-03-29T10:58:11;1.80;;;0.20;;
71869;SDS011;59739;47.696;11.746;2024-03-29T11:00:41;0.47;;;0.10;;
71869;SDS011;59739;47.696;11.746;2024-03-29T11:05:52;0.90;;;0.15;;
71869;SDS011;59739;47.696;11.746;2024-03-29T11:08:33;0.10;;;0.10;;
71869;SDS011;59739;47.696;11.746;2024-03-29T11:11:07;0.00;;;0.00;;
71869;SDS011;59739;47.696;11.746;2024-03-29T11:13:45;0.10;;;0.05;;
71869;SDS011;59739;47.696;11.746;2024-03-29T11:16:18;0.20;;;0.10;;
71869;SDS011;59739;47.696;11.746;2024-03-29T11:18:45;0.10;;;0.10;;
71869;SDS011;59739;47.696;11.746;2024-03-29T11:21:13;0.35;;;0.10;;
71869;SDS011;59739;47.696;11.746;2024-03-29T11:23:50;0.10;;;0.05;;
71869;SDS011;59739;47.696;11.746;2024-03-29T11:26:22;0.00;;;0.00;;
71869;SDS011;59739;47.696;11.746;2024-03-29T11:28:52;0.20;;;0.05;;
71869;SDS011;59739;47.696;11.746;2024-03-29T11:31:24;0.10;;;0.00;;
71869;SDS011;59739;47.696;11.746;2024-03-29T11:33:50;0.08;;;0.08;;
71869;SDS011;59739;47.696;11.746;2024-03-29T11:36:23;0.55;;;0.05;;
71869;SDS011;59739;47.696;11.746;2024-03-29T11:38:57;0.10;;;0.10;;
71869;SDS011;59739;47.696;11.746;2024-03-29T11:41:24;0.03;;;0.03;;
71869;SDS011;59739;47.696;11.746;2024-03-29T11:43:53;0.20;;;0.10;;
71869;SDS011;59739;47.696;11.746;2024-03-29T11:46:23;0.00;;;0.00;;
71869;SDS011;59739;47.696;11.746;2024-03-29T11:48:51;1.02;;;0.10;;
71869;SDS011;59739;47.696;11.746;2024-03-29T11:51:19;0.90;;;0.10;;
71869;SDS011;59739;47.696;11.746;2024-03-29T11:53:49;0.00;;;0.00;;
71869;SDS011;59739;47.696;11.746;2024-03-29T11:56:17;0.85;;;0.00;;
71869;SDS011;59739;47.696;11.746;2024-03-29T11:58:43;0.13;;;0.00;;
71869;SDS011;59739;47.696;11.746;2024-03-29T12:01:10;0.00;;;0.00;;
71869;SDS011;59739;47.696;11.746;2024-03-29T12:03:39;0.38;;;0.03;;
71869;SDS011;59739;47.696;11.746;2024-03-29T12:06:06;0.00;;;0.00;;
71869;SDS011;59739;47.696;11.746;2024-03-29T12:08:37;0.00;;;0.00;;
71869;SDS011;59739;47.696;11.746;2024-03-29T12:11:05;0.00;;;0.00;;
71869;SDS011;59739;47.696;11.746;2024-03-29T12:13:31;0.20;;;0.00;;
71869;SDS011;59739;47.696;11.746;2024-03-29T12:15:58;0.10;;;0.00;;
71869;SDS011;59739;47.696;11.746;2024-03-29T12:18:25;0.00;;;0.00;;
71869;SDS011;59739;47.696;11.746;2024-03-29T12:20:58;0.30;;;0.00;;
71869;SDS011;59739;47.696;11.746;2024-03-29T12:23:24;0.00;;;0.00;;
71869;SDS011;59739;47.696;11.746;2024-03-29T12:25:52;0.00;;;0.00;;
71869;SDS011;59739;47.696;11.746;2024-03-29T12:30:52;0.17;;;0.08;;
71869;SDS011;59739;47.696;11.746;2024-03-29T12:33:20;0.00;;;0.00;;
71869;SDS011;59739;47.696;11.746;2024-03-29T12:35:48;0.30;;;0.10;;
71869;SDS011;59739;47.696;11.746;2024-03-29T12:38:19;0.38;;;0.00;;
71869;SDS011;59739;47.696;11.746;2024-03-29T12:40:48;0.43;;;0.00;;
71869;SDS011;59739;47.696;11.746;2024-03-29T12:43:19;0.30;;;0.10;;
71869;SDS011;59739;47.696;11.746;2024-03-29T12:45:48;0.00;;;0.00;;
71869;SDS011;59739;47.696;11.746;2024-03-29T12:48:16;0.08;;;0.00;;
71869;SDS011;59739;47.696;11.746;2024-03-29T12:50:45;0.00;;;0.00;;
71869;SDS011;59739;47.696;11.746;2024-03-29T12:53:13;0.00;;;0.00;;
71869;SDS011;59739;47.696;11.746;2024-03-29T12:55:48;0.00;;;0.00;;
71869;SDS011;59739;47.696;11.746;2024-03-29T12:58:15;0.60;;;0.00;;
71869;SDS011;59739;47.696;11.746;2024-03-29T13:00:45;0.83;;;0.10;;
71869;SDS011;59739;47.696;11.746;2024-03-29T13:03:12;0.00;;;0.00;;
71869;SDS011;59739;47.696;11.746;2024-03-29T13:05:39;0.10;;;0.00;;
71869;SDS011;59739;47.696;11.746;2024-03-29T13:08:10;0.00;;;0.00;;
71869;SDS011;59739;47.696;11.746;2024-03-29T13:10:45;0.10;;;0.10;;
71869;SDS011;59739;47.696;11.746;2024-03-29T13:13:12;0.00;;;0.00;;
71869;SDS011;59739;47.696;11.746;2024-03-29T13:15:47;1.35;;;0.10;;
71869;SDS011;59739;47.696;11.746;2024-03-29T13:18:15;0.10;;;0.10;;
71869;SDS011;59739;47.696;11.746;2024-03-29T13:20:44;0.38;;;0.05;;
71869;SDS011;59739;47.696;11.746;2024-03-29T13:23:10;0.00;;;0.00;;
71869;SDS011;59739;47.696;11.746;2024-03-29T13:25:37;0.00;;;0.00;;
71869;SDS011;59739;47.696;11.746;2024-03-29T13:28:04;0.28;;;0.00;;
71869;SDS011;59739;47.696;11.746;2024-03-29T13:30:32;0.00;;;0.00;;
71869;SDS011;59739;47.696;11.746;2024-03-29T13:33:03;0.00;;;0.00;;
71869;SDS011;59739;47.696;11.746;2024-03-29T13:35:30;0.10;;;0.05;;
71869;SDS011;59739;47.696;11.746;2024-03-29T13:37:58;0.00;;;0.00;;
71869;SDS011;59739;47.696;11.746;2024-03-29T13:40:27;0.47;;;0.00;;
71869;SDS011;59739;47.696;11.746;2024-03-29T13:43:00;0.00;;;0.00;;
71869;SDS011;59739;47.696;11.746;2024-03-29T13:45:27;0.63;;;0.00;;
71869;SDS011;59739;47.696;11.746;2024-03-29T13:47:53;0.00;;;0.00;;
71869;SDS011;59739;47.696;11.746;2024-03-29T13:50:21;0.10;;;0.03;;
71869;SDS011;59739;47.696;11.746;2024-03-29T13:52:47;0.00;;;0.00;;
71869;SDS011;59739;47.696;11.746;2024-03-29T13:55:13;0.00;;;0.00;;
71869;SDS011;59739;47.696;11.746;2024-03-29T13:57:39;0.00;;;0.00;;
71869;SDS011;59739;47.696;11.746;2024-03-29T14:00:09;0.32;;;0.28;;
71869;SDS011;59739;47.696;11.746;2024-03-29T14:02:39;0.10;;;0.10;;
71869;SDS011;59739;47.696;11.746;2024-03-29T14:05:05;0.08;;;0.00;;
71869;SDS011;59739;47.696;11.746;2024-03-29T14:07:32;0.00;;;0.00;;
71869;SDS011;59739;47.696;11.746;2024-03-29T14:09:58;0.00;;;0.00;;
71869;SDS011;59739;47.696;11.746;2024-03-29T14:12:25;0.10;;;0.00;;
71869;SDS011;59739;47.696;11.746;2024-03-29T14:14:51;0.38;;;0.08;;
71869;SDS011;59739;47.696;11.746;2024-03-29T14:17:20;0.20;;;0.13;;
71869;SDS011;59739;47.696;11.746;2024-03-29T14:19:50;0.15;;;0.00;;
71869;SDS011;59739;47.696;11.746;2024-03-29T14:22:16;0.90;;;0.15;;
71869;SDS011;59739;47.696;11.746;2024-03-29T14:24:44;0.00;;;0.00;;
71869;SDS011;59739;47.696;11.746;2024-03-29T14:27:11;0.05;;;0.00;;
71869;SDS011;59739;47.696;11.746;2024-03-29T14:29:39;0.52;;;0.10;;
71869;SDS011;59739;47.696;11.746;2024-03-29T14:32:10;0.10;;;0.05;;
71869;SDS011;59739;47.696;11.746;2024-03-29T14:34:36;0.00;;;0.00;;
71869;SDS011;59739;47.696;11.746;2024-03-29T14:37:05;0.10;;;0.10;;
71869;SDS011;59739;47.696;11.746;2024-03-29T14:39:31;0.03;;;0.03;;
71869;SDS011;59739;47.696;11.746;2024-03-29T14:41:57;0.43;;;0.03;;
71869;SDS011;59739;47.696;11.746;2024-03-29T14:44:26;0.00;;;0.00;;
71869;SDS011;59739;47.696;11.746;2024-03-29T14:46:52;0.10;;;0.10;;